Time;durP1;ratioP1;P1;durP2;ratioP2;P2;SDS_P1;SDS_P2;PMS_P1;PMS_P2;Temp;Humidity;BMP_temperature;BMP_pressure;BME280_temperature;BME280_humidity;BME280_pressure;Samples;Min_cycle;Max_cycle;Signal;HPM_P1;HPM_P2
2021/10/25 00:01:55;;;;;;;4.32;3.92;;;2.00;99.90;;;;;;4749829;30;20048;-84
2021/10/25 00:04:23;;;;;;;4.47;4.07;;;2.20;99.90;;;;;;4759944;30;20043;-83
2021/10/25 00:06:52;;;;;;;6.15;4.93;;;2.40;99.90;;;;;;4754695;30;20054;-84
2021/10/25 00:09:19;;;;;;;5.38;4.93;;;2.70;99.90;;;;;;4785199;29;20044;-84
2021/10/25 00:11:49;;;;;;;4.65;4.28;;;2.70;99.90;;;;;;4785255;30;20047;-83
2021/10/25 00:14:17;;;;;;;12.40;8.43;;;2.80;99.90;;;;;;4769987;29;20056;-83
2021/10/25 00:16:45;;;;;;;6.15;4.00;;;2.90;99.90;;;;;;4734019;30;20056;-83
2021/10/25 00:19:13;;;;;;;5.32;4.53;;;3.10;99.90;;;;;;4750150;30;20065;-83
2021/10/25 00:21:41;;;;;;;6.70;4.63;;;3.10;99.90;;;;;;4733971;30;20423;-84
2021/10/25 00:24:09;;;;;;;5.40;4.40;;;3.10;99.90;;;;;;4749644;30;20052;-83
2021/10/25 00:26:37;;;;;;;3.88;3.58;;;3.20;99.90;;;;;;4749639;30;20060;-84
2021/10/25 00:29:06;;;;;;;6.97;4.00;;;3.00;99.90;;;;;;4748993;30;20048;-83
2021/10/25 00:31:34;;;;;;;5.53;4.93;;;2.90;99.90;;;;;;4733862;30;20057;-83
2021/10/25 00:34:01;;;;;;;4.75;4.35;;;2.80;99.90;;;;;;4749550;30;20071;-83
2021/10/25 00:36:30;;;;;;;4.55;3.33;;;2.70;99.90;;;;;;4734469;30;20115;-83
2021/10/25 00:38:57;;;;;;;6.00;4.28;;;2.70;99.90;;;;;;4748313;30;20154;-83
2021/10/25 00:41:25;;;;;;;5.20;4.65;;;2.80;99.90;;;;;;4735579;30;20539;-78
2021/10/25 00:43:53;;;;;;;5.47;4.57;;;2.60;99.90;;;;;;4737253;30;20395;-83
2021/10/25 00:46:21;;;;;;;4.25;3.88;;;2.50;99.90;;;;;;4751371;30;20073;-83
2021/10/25 00:48:49;;;;;;;4.70;3.28;;;2.40;99.90;;;;;;4750737;30;20062;-78
2021/10/25 00:51:16;;;;;;;4.20;3.72;;;2.10;99.90;;;;;;4770979;30;20079;-78
2021/10/25 00:53:44;;;;;;;5.05;4.65;;;1.90;99.90;;;;;;4770102;30;20063;-78
2021/10/25 00:56:12;;;;;;;5.43;4.90;;;1.70;99.90;;;;;;4770823;30;20067;-78
2021/10/25 00:58:40;;;;;;;4.88;4.07;;;1.70;99.90;;;;;;4753993;30;20048;-78
2021/10/25 01:01:10;;;;;;;5.07;3.72;;;1.70;99.90;;;;;;4769383;30;20054;-78
2021/10/25 01:03:39;;;;;;;4.28;3.92;;;1.60;99.90;;;;;;4754814;30;20090;-78
2021/10/25 01:06:08;;;;;;;5.70;5.30;;;1.60;99.90;;;;;;4772153;30;20055;-78
2021/10/25 01:08:37;;;;;;;6.15;4.65;;;1.50;99.90;;;;;;4788153;29;20059;-78
2021/10/25 01:11:07;;;;;;;6.13;4.85;;;1.60;99.90;;;;;;4757423;30;20051;-78
2021/10/25 01:13:35;;;;;;;5.13;4.30;;;1.60;99.90;;;;;;4771530;30;20051;-78
2021/10/25 01:16:07;;;;;;;3.55;3.25;;;1.80;99.90;;;;;;4772088;30;20047;-78
2021/10/25 01:18:36;;;;;;;6.03;5.45;;;1.80;99.90;;;;;;4772026;30;20066;-78
2021/10/25 01:21:04;;;;;;;4.63;3.38;;;1.80;99.90;;;;;;4786515;29;20074;-83
2021/10/25 01:23:32;;;;;;;4.57;4.20;;;1.90;99.90;;;;;;4787202;30;20697;-83
2021/10/25 01:26:00;;;;;;;5.43;4.88;;;1.80;99.90;;;;;;4774329;30;20086;-78
2021/10/25 01:28:28;;;;;;;5.38;4.57;;;1.70;99.90;;;;;;4754083;30;20055;-78
2021/10/25 01:30:56;;;;;;;4.82;4.20;;;1.70;99.90;;;;;;4769180;30;20063;-78
2021/10/25 01:33:24;;;;;;;5.70;5.00;;;1.60;99.90;;;;;;4754089;30;20051;-83
2021/10/25 01:35:52;;;;;;;3.85;3.55;;;1.60;99.90;;;;;;4739852;30;20055;-83
2021/10/25 01:38:19;;;;;;;4.95;4.13;;;1.50;99.90;;;;;;4738934;30;20056;-78
2021/10/25 01:40:50;;;;;;;5.00;4.45;;;1.60;99.90;;;;;;4753603;30;20047;-78
2021/10/25 01:43:18;;;;;;;4.85;3.30;;;1.60;99.90;;;;;;4783760;30;20072;-77
2021/10/25 01:45:46;;;;;;;6.07;4.43;;;1.60;99.90;;;;;;4737963;30;20056;-78
2021/10/25 01:48:15;;;;;;;3.67;3.45;;;1.60;99.90;;;;;;4754103;30;20063;-78
2021/10/25 01:50:43;;;;;;;5.03;4.63;;;1.50;99.90;;;;;;4753542;30;20062;-83
2021/10/25 01:53:11;;;;;;;4.00;3.63;;;1.50;99.90;;;;;;4753524;30;20063;-83
2021/10/25 01:55:51;;;;;;;5.25;4.75;;;1.50;99.90;;;;;;4739317;30;20056;-83
2021/10/25 01:58:19;;;;;;;4.47;4.07;;;1.50;99.90;;;;;;4753415;30;20052;-78
2021/10/25 02:00:47;;;;;;;9.88;6.32;;;1.50;99.90;;;;;;4767448;30;20052;-78
2021/10/25 02:03:15;;;;;;;21.80;4.05;;;1.50;99.90;;;;;;4770016;30;20048;-78
2021/10/25 02:05:48;;;;;;;3.95;3.63;;;1.50;99.90;;;;;;4798965;29;20051;-78
2021/10/25 02:08:17;;;;;;;4.20;3.53;;;1.10;99.90;;;;;;4771493;30;20070;-78
2021/10/25 02:10:56;;;;;;;5.10;4.70;;;1.00;99.90;;;;;;4770995;30;20058;-78
2021/10/25 02:13:24;;;;;;;7.30;4.97;;;0.90;99.90;;;;;;4769123;30;20055;-78
2021/10/25 02:15:53;;;;;;;4.18;3.78;;;0.90;99.90;;;;;;4764963;30;20056;-78
2021/10/25 02:18:22;;;;;;;4.30;3.95;;;1.00;99.90;;;;;;4735307;30;20052;-78
2021/10/25 02:20:50;;;;;;;6.80;4.40;;;1.10;99.90;;;;;;4750181;30;20056;-78
2021/10/25 02:23:23;;;;;;;6.25;4.10;;;1.30;99.90;;;;;;4750508;30;20048;-82
2021/10/25 02:25:55;;;;;;;4.05;3.63;;;1.10;99.90;;;;;;4735231;30;20052;-78
2021/10/25 02:28:24;;;;;;;6.53;4.00;;;0.70;99.90;;;;;;4721191;30;20056;-78
2021/10/25 02:30:55;;;;;;;6.80;5.10;;;0.50;99.90;;;;;;4749435;30;20052;-83
2021/10/25 02:33:24;;;;;;;6.25;4.68;;;0.70;99.90;;;;;;4750934;30;20125;-84
2021/10/25 02:35:52;;;;;;;5.50;5.00;;;0.90;99.90;;;;;;4736197;30;20463;-83
2021/10/25 02:38:22;;;;;;;4.88;4.47;;;1.00;99.90;;;;;;4751293;30;20060;-87
2021/10/25 02:40:55;;;;;;;8.23;4.78;;;1.10;99.90;;;;;;4734957;30;20384;-81
2021/10/25 02:43:22;;;;;;;7.45;6.70;;;1.00;99.90;;;;;;4721247;30;20056;-82
2021/10/25 02:45:53;;;;;;;4.15;3.85;;;0.90;99.90;;;;;;4749251;30;20048;-87
2021/10/25 02:48:25;;;;;;;5.13;4.32;;;0.90;99.90;;;;;;4761055;30;20055;-87
2021/10/25 02:50:54;;;;;;;4.97;4.22;;;0.90;99.90;;;;;;4752360;30;20044;-82
2021/10/25 02:53:22;;;;;;;6.68;5.95;;;1.00;99.90;;;;;;4738324;30;20055;-87
2021/10/25 02:55:51;;;;;;;5.97;5.50;;;0.90;99.90;;;;;;4753528;30;20529;-87
2021/10/25 02:58:19;;;;;;;4.93;4.25;;;1.00;99.90;;;;;;4738077;30;20058;-88
2021/10/25 03:00:53;;;;;;;5.85;4.57;;;1.10;99.90;;;;;;4737281;30;20070;-87
2021/10/25 03:03:22;;;;;;;5.22;4.75;;;1.10;99.90;;;;;;4767871;30;20047;-88
2021/10/25 03:05:49;;;;;;;6.15;5.63;;;1.10;99.90;;;;;;4754067;30;20055;-88
2021/10/25 03:08:17;;;;;;;7.82;4.97;;;1.20;99.90;;;;;;4771048;30;20111;-88
2021/10/25 03:10:45;;;;;;;5.35;4.93;;;1.20;99.90;;;;;;4769960;30;20044;-87
2021/10/25 03:13:14;;;;;;;4.78;4.30;;;1.30;99.90;;;;;;4786011;29;20135;-88
2021/10/25 03:15:44;;;;;;;7.38;5.72;;;1.30;99.90;;;;;;4740902;30;20055;-87
2021/10/25 03:18:13;;;;;;;5.80;4.72;;;1.40;99.90;;;;;;4755391;30;20058;-88
2021/10/25 03:20:44;;;;;;;11.93;4.13;;;1.40;99.90;;;;;;4769771;29;20062;-88
2021/10/25 03:23:12;;;;;;;6.28;5.30;;;1.20;99.90;;;;;;4770542;30;20275;-87
2021/10/25 03:25:40;;;;;;;5.65;5.22;;;1.20;99.90;;;;;;4742277;30;20503;-88
2021/10/25 03:28:09;;;;;;;5.68;4.70;;;1.20;99.90;;;;;;4764796;30;20051;-87
2021/10/25 03:30:40;;;;;;;4.93;4.43;;;1.30;99.90;;;;;;4728946;30;20399;-87
2021/10/25 03:33:09;;;;;;;5.93;4.22;;;1.30;99.90;;;;;;4737448;30;20051;-88
2021/10/25 03:35:56;;;;;;;10.85;5.45;;;1.30;99.90;;;;;;4752539;30;20495;-88
2021/10/25 03:38:25;;;;;;;5.95;5.45;;;1.10;99.90;;;;;;4769149;29;20047;-88
2021/10/25 03:40:55;;;;;;;6.15;5.40;;;1.00;99.90;;;;;;4751560;30;20040;-88
2021/10/25 03:43:28;;;;;;;4.97;4.50;;;1.00;99.90;;;;;;4752001;30;20059;-87
2021/10/25 03:46:07;;;;;;;6.60;4.93;;;1.00;99.90;;;;;;4751575;30;20043;-88
2021/10/25 03:48:48;;;;;;;7.20;5.03;;;1.00;99.90;;;;;;4737374;30;20068;-88
2021/10/25 03:51:18;;;;;;;6.00;5.47;;;1.00;99.90;;;;;;4752815;30;20052;-87
2021/10/25 03:56:39;;;;;;;5.07;4.57;;;1.00;99.90;;;;;;4752014;30;20063;-87
2021/10/25 04:02:18;;;;;;;8.77;5.65;;;1.00;99.90;;;;;;4751933;30;20055;-88
2021/10/25 04:13:32;;;;;;;5.55;4.28;;;1.30;99.90;;;;;;4772300;29;20066;-88
2021/10/25 04:26:07;;;;;;;5.35;3.78;;;1.20;99.90;;;;;;4754931;30;20051;-88
2021/10/25 04:28:09;;;;;;;5.97;5.32;;;1.20;99.90;;;;;;4738382;30;20052;-88
2021/10/25 04:30:40;;;;;;;4.35;4.00;;;1.10;99.90;;;;;;4768684;30;20054;-88
2021/10/25 04:33:18;;;;;;;6.20;5.65;;;1.20;99.90;;;;;;4756910;30;20048;-88
2021/10/25 04:35:58;;;;;;;4.65;4.00;;;1.20;99.90;;;;;;4770628;30;20067;-88
2021/10/25 04:38:43;;;;;;;4.47;4.07;;;1.30;99.90;;;;;;4769455;30;20051;-88
2021/10/25 04:41:13;;;;;;;6.28;4.53;;;1.20;99.90;;;;;;4769915;30;20077;-87
2021/10/25 04:43:45;;;;;;;5.32;4.93;;;1.30;99.90;;;;;;4755590;30;20395;-87
2021/10/25 04:46:23;;;;;;;5.22;4.82;;;1.30;99.90;;;;;;4739648;30;20059;-88
2021/10/25 04:48:51;;;;;;;8.43;5.05;;;1.20;99.90;;;;;;4769543;30;20056;-89
2021/10/25 04:51:30;;;;;;;4.72;4.30;;;1.10;99.90;;;;;;4740622;30;20090;-88
2021/10/25 04:54:12;;;;;;;4.20;3.88;;;1.00;99.90;;;;;;4741475;30;20052;-87
2021/10/25 04:57:01;;;;;;;6.93;4.97;;;1.10;99.90;;;;;;4740298;30;20047;-89
2021/10/25 04:59:30;;;;;;;13.13;5.15;;;1.20;99.90;;;;;;4769130;30;20052;-83
2021/10/25 05:02:03;;;;;;;5.28;4.78;;;1.10;99.90;;;;;;4739588;30;20072;-83
2021/10/25 05:04:35;;;;;;;5.38;4.88;;;0.90;99.90;;;;;;4769020;29;20547;-82
2021/10/25 05:07:04;;;;;;;6.15;5.10;;;0.80;99.90;;;;;;4775690;29;20055;-83
2021/10/25 05:09:35;;;;;;;6.10;5.43;;;0.80;99.90;;;;;;4774952;29;20664;-83
2021/10/25 05:12:10;;;;;;;6.63;5.68;;;0.90;99.90;;;;;;4775414;29;20050;-83
2021/10/25 05:14:43;;;;;;;5.43;4.57;;;0.70;99.90;;;;;;4774587;29;20097;-83
2021/10/25 05:17:14;;;;;;;5.45;4.60;;;0.80;99.90;;;;;;4790118;29;20054;-88
2021/10/25 05:19:44;;;;;;;6.88;6.30;;;0.90;99.90;;;;;;4775817;29;20054;-87
2021/10/25 05:22:25;;;;;;;17.17;6.38;;;0.90;99.90;;;;;;4776335;29;20039;-89
2021/10/25 05:25:05;;;;;;;12.63;7.60;;;1.10;99.90;;;;;;4778154;29;20085;-88
2021/10/25 05:27:40;;;;;;;7.65;4.43;;;1.10;99.90;;;;;;4772769;30;20074;-88
2021/10/25 05:30:18;;;;;;;5.88;5.28;;;1.20;99.90;;;;;;4768817;30;20051;-89
2021/10/25 05:32:55;;;;;;;6.10;5.13;;;1.10;99.90;;;;;;4739816;30;20550;-87
2021/10/25 05:35:26;;;;;;;8.30;5.05;;;1.00;99.90;;;;;;4755488;30;20375;-88
2021/10/25 05:37:57;;;;;;;6.20;4.70;;;1.00;99.90;;;;;;4755092;30;20052;-88
2021/10/25 05:40:32;;;;;;;6.30;5.35;;;1.10;99.90;;;;;;4769094;30;20059;-88
2021/10/25 05:43:11;;;;;;;8.65;5.72;;;1.20;99.90;;;;;;4739265;30;20047;-88
2021/10/25 05:45:45;;;;;;;8.18;5.90;;;1.20;99.90;;;;;;4716694;30;20047;-87
2021/10/25 05:48:21;;;;;;;5.13;4.35;;;1.20;99.90;;;;;;4754379;30;20059;-88
2021/10/25 05:50:57;;;;;;;5.93;4.30;;;1.30;99.90;;;;;;4726339;30;20059;-88
2021/10/25 05:54:11;;;;;;;6.20;4.70;;;1.20;99.90;;;;;;4744311;30;20060;-87
2021/10/25 05:56:49;;;;;;;6.45;5.38;;;1.10;99.90;;;;;;4730033;29;20058;-88
2021/10/25 05:59:33;;;;;;;5.65;5.15;;;1.10;99.90;;;;;;4768447;30;20056;-88
2021/10/25 06:05:33;;;;;;;6.18;5.07;;;1.20;99.90;;;;;;4765323;30;20070;-88
2021/10/25 06:08:13;;;;;;;6.03;5.45;;;1.30;99.90;;;;;;4757189;30;20063;-82
2021/10/25 06:10:48;;;;;;;9.40;5.55;;;1.30;99.90;;;;;;4755811;30;20059;-88
2021/10/25 06:18:59;;;;;;;5.23;4.73;;;1.40;99.90;;;;;;4726313;30;20044;-83
2021/10/25 06:21:30;;;;;;;6.05;5.45;;;1.30;99.90;;;;;;4720647;30;20521;-83
2021/10/25 06:24:09;;;;;;;5.43;4.95;;;1.30;99.90;;;;;;4735450;30;20056;-83
2021/10/25 06:27:08;;;;;;;9.23;6.60;;;1.40;99.90;;;;;;4723633;30;20056;-83
2021/10/25 06:29:40;;;;;;;6.00;5.50;;;1.70;99.90;;;;;;4744807;30;20068;-83
2021/10/25 06:32:23;;;;;;;6.05;5.53;;;1.80;99.90;;;;;;4689541;30;20056;-82
2021/10/25 06:34:59;;;;;;;6.25;5.25;;;1.80;99.90;;;;;;4692066;30;20067;-83
2021/10/25 06:38:10;;;;;;;6.72;6.10;;;1.90;99.90;;;;;;4681950;30;20419;-88
2021/10/25 06:41:15;;;;;;;8.05;4.82;;;1.90;99.90;;;;;;4685267;30;20060;-88
2021/10/25 06:44:11;;;;;;;6.10;5.28;;;2.00;99.90;;;;;;4670575;30;20068;-83
2021/10/25 06:46:42;;;;;;;6.18;5.65;;;2.00;99.90;;;;;;4701117;30;20064;-83
2021/10/25 06:49:13;;;;;;;6.22;5.15;;;2.00;99.90;;;;;;4682891;30;20558;-88
2021/10/25 06:51:42;;;;;;;7.65;6.63;;;2.20;99.90;;;;;;4667504;30;20057;-83
2021/10/25 06:54:11;;;;;;;6.15;5.75;;;2.20;99.90;;;;;;4681243;30;20065;-83
2021/10/25 06:56:39;;;;;;;5.38;4.78;;;2.20;99.90;;;;;;4681584;30;20069;-83
2021/10/25 06:59:07;;;;;;;5.97;5.40;;;2.20;99.90;;;;;;4681645;30;20057;-81
2021/10/25 07:01:40;;;;;;;4.82;4.32;;;2.30;99.90;;;;;;4681291;30;20053;-81
2021/10/25 07:04:08;;;;;;;5.80;5.22;;;2.40;99.90;;;;;;4688900;30;20056;-81
2021/10/25 07:06:37;;;;;;;5.72;5.22;;;2.50;99.90;;;;;;4715735;30;20110;-81
2021/10/25 07:09:06;;;;;;;5.65;4.47;;;2.50;99.90;;;;;;4701613;30;20044;-83
2021/10/25 07:11:35;;;;;;;4.85;4.35;;;2.60;99.90;;;;;;4716069;30;20079;-83
2021/10/25 07:14:06;;;;;;;9.48;5.38;;;2.70;99.90;;;;;;4715476;30;20921;-83
2021/10/25 07:16:49;;;;;;;7.28;5.88;;;2.70;99.90;;;;;;4715237;30;20072;-81
2021/10/25 07:19:41;;;;;;;8.45;6.82;;;2.80;99.90;;;;;;4716284;30;20063;-81
2021/10/25 08:05:32;;;;;;;7.53;5.88;;;4.00;99.90;;;;;;4741435;30;20504;-84
2021/10/25 08:08:04;;;;;;;10.15;4.95;;;4.00;99.90;;;;;;4769842;30;20066;-81
2021/10/25 08:10:48;;;;;;;6.97;6.38;;;4.20;99.90;;;;;;4770339;30;20059;-84
2021/10/25 08:13:18;;;;;;;8.40;6.82;;;4.30;99.90;;;;;;4783948;29;20047;-81
2021/10/25 08:15:46;;;;;;;8.73;6.25;;;4.50;99.90;;;;;;4733779;30;20494;-81
2021/10/25 08:20:50;;;;;;;5.85;5.03;;;5.00;99.90;;;;;;4749769;30;20060;-84
2021/10/25 08:23:20;;;;;;;10.55;6.90;;;5.00;99.90;;;;;;4734346;30;20487;-84
2021/10/25 08:25:48;;;;;;;6.82;5.32;;;5.20;99.90;;;;;;4733749;30;20059;-84
2021/10/25 08:28:17;;;;;;;7.13;6.10;;;5.30;99.90;;;;;;4734538;30;20053;-84
2021/10/25 08:30:48;;;;;;;6.43;5.95;;;5.50;99.90;;;;;;4747355;30;20057;-84
2021/10/25 08:41:37;;;;;;;8.32;7.50;;;5.50;99.90;;;;;;4748434;30;20055;-81
2021/10/25 08:44:07;;;;;;;10.43;8.13;;;5.50;99.90;;;;;;4734146;30;20044;-81
2021/10/25 08:46:35;;;;;;;7.05;6.35;;;5.60;99.90;;;;;;4748102;30;20071;-85
2021/10/25 08:49:03;;;;;;;6.90;6.30;;;5.60;99.90;;;;;;4764061;30;20058;-81
2021/10/25 08:51:32;;;;;;;7.00;6.32;;;5.80;99.90;;;;;;4766358;30;20059;-85
2021/10/25 08:54:00;;;;;;;8.85;5.28;;;5.90;99.90;;;;;;4736498;30;20055;-84
2021/10/25 08:56:29;;;;;;;6.18;5.63;;;6.00;99.90;;;;;;4751820;30;20043;-84
2021/10/25 08:59:16;;;;;;;6.88;5.10;;;6.20;99.90;;;;;;4725164;30;20047;-84
2021/10/25 09:01:47;;;;;;;7.10;4.97;;;6.30;99.90;;;;;;4752598;30;20486;-84
2021/10/25 09:04:24;;;;;;;4.75;4.30;;;6.50;99.90;;;;;;4747182;30;20402;-84
2021/10/25 09:07:08;;;;;;;6.32;5.80;;;6.70;99.90;;;;;;4771514;30;20513;-84
2021/10/25 09:09:43;;;;;;;5.10;4.55;;;6.80;99.90;;;;;;4757266;30;20059;-84
2021/10/25 09:12:15;;;;;;;5.32;4.03;;;6.90;99.90;;;;;;4772338;30;20486;-85
2021/10/25 09:14:57;;;;;;;6.25;4.72;;;7.10;99.90;;;;;;4787389;29;20059;-84
2021/10/25 09:17:27;;;;;;;4.82;3.15;;;7.10;99.90;;;;;;4771976;30;20050;-84
2021/10/25 09:20:05;;;;;;;4.82;4.43;;;7.20;99.90;;;;;;4787262;30;20482;-83
2021/10/25 09:22:35;;;;;;;4.78;4.35;;;7.20;99.90;;;;;;4787906;30;20055;-84
2021/10/25 09:25:04;;;;;;;3.72;3.20;;;7.20;99.90;;;;;;4761574;30;20459;-84
2021/10/25 09:27:44;;;;;;;8.23;4.60;;;7.20;99.90;;;;;;4722247;30;20499;-84
2021/10/25 09:30:39;;;;;;;4.28;3.95;;;7.30;99.90;;;;;;4750086;30;20129;-84
2021/10/25 09:33:08;;;;;;;5.05;4.43;;;7.40;99.90;;;;;;4751032;30;20052;-84
2021/10/25 09:35:47;;;;;;;4.85;4.47;;;7.50;99.90;;;;;;4736960;30;20067;-84
2021/10/25 09:49:59;;;;;;;6.32;4.28;;;7.90;99.90;;;;;;4735376;30;20113;-83
2021/10/25 09:52:39;;;;;;;3.95;3.65;;;7.80;99.90;;;;;;4720011;30;20056;-85
2021/10/25 09:55:20;;;;;;;7.57;4.70;;;7.80;99.90;;;;;;4733419;30;20052;-84
2021/10/25 09:58:04;;;;;;;5.20;4.70;;;7.70;99.90;;;;;;4734426;30;20064;-85
2021/10/25 10:00:41;;;;;;;5.15;4.22;;;7.70;99.90;;;;;;4746768;30;20057;-79
2021/10/25 10:03:15;;;;;;;4.03;3.72;;;7.80;99.90;;;;;;4749591;30;20053;-81
2021/10/25 10:06:00;;;;;;;4.20;3.83;;;7.80;99.90;;;;;;4754123;30;20054;-81
2021/10/25 10:08:34;;;;;;;5.75;3.75;;;7.80;99.90;;;;;;4755065;29;20498;-82
2021/10/25 10:11:15;;;;;;;4.68;4.28;;;7.90;99.90;;;;;;4769560;30;20484;-83
2021/10/25 10:13:43;;;;;;;3.67;3.38;;;7.90;99.90;;;;;;4747908;30;20056;-81
2021/10/25 10:16:35;;;;;;;5.82;5.22;;;8.00;99.90;;;;;;4748408;30;20056;-81
2021/10/25 10:19:10;;;;;;;5.78;5.25;;;8.10;99.90;;;;;;4733536;30;20053;-81
2021/10/25 10:22:06;;;;;;;3.75;3.45;;;8.20;99.90;;;;;;4742208;30;20299;-81
2021/10/25 10:24:53;;;;;;;5.47;4.82;;;8.20;99.90;;;;;;4748419;30;20480;-81
2021/10/25 10:27:23;;;;;;;3.42;3.13;;;8.30;99.90;;;;;;4749369;30;20059;-82
2021/10/25 10:30:00;;;;;;;3.95;3.65;;;8.50;99.90;;;;;;4746310;30;20075;-82
2021/10/25 10:32:43;;;;;;;4.93;4.43;;;8.40;99.90;;;;;;4733623;30;20335;-82
2021/10/25 10:35:40;;;;;;;5.63;4.93;;;8.50;99.90;;;;;;4764149;30;20056;-82
2021/10/25 10:38:14;;;;;;;5.85;4.65;;;8.50;99.90;;;;;;4749872;30;20071;-82
2021/10/25 10:41:03;;;;;;;5.97;4.35;;;8.50;99.90;;;;;;4732914;30;20436;-81
2021/10/25 10:44:10;;;;;;;5.72;3.83;;;8.60;99.90;;;;;;4718992;30;20071;-82
2021/10/25 10:46:40;;;;;;;5.82;4.90;;;8.60;99.90;;;;;;4762619;30;20053;-82
2021/10/25 10:49:23;;;;;;;5.18;4.35;;;8.70;99.90;;;;;;4736518;30;20051;-82
2021/10/25 10:52:04;;;;;;;5.72;5.22;;;8.80;99.90;;;;;;4767287;30;20072;-82
2021/10/25 10:54:45;;;;;;;4.90;4.50;;;8.80;99.90;;;;;;4766823;30;20521;-82
2021/10/25 10:57:27;;;;;;;4.47;4.07;;;8.90;99.90;;;;;;4767105;30;20052;-82
2021/10/25 11:00:02;;;;;;;5.30;4.32;;;8.70;99.90;;;;;;4764916;30;20087;-82
2021/10/25 11:02:30;;;;;;;6.00;4.30;;;8.80;99.90;;;;;;4767298;30;20540;-85
2021/10/25 11:05:08;;;;;;;19.25;6.45;;;8.90;99.90;;;;;;4776819;29;20138;-84
2021/10/25 11:07:41;;;;;;;7.97;4.60;;;8.90;99.90;;;;;;4785285;30;20066;-85
2021/10/25 11:10:10;;;;;;;3.35;3.05;;;8.90;99.90;;;;;;4783617;29;20051;-85
2021/10/25 11:12:44;;;;;;;5.55;4.78;;;8.90;99.90;;;;;;4783752;29;20329;-84
2021/10/25 11:15:15;;;;;;;6.70;5.13;;;8.90;99.90;;;;;;4753246;30;20460;-85
2021/10/25 11:17:43;;;;;;;3.83;3.47;;;8.80;99.90;;;;;;4783752;29;20506;-85
2021/10/25 11:20:11;;;;;;;4.03;3.78;;;8.90;99.90;;;;;;4784493;30;20066;-84
2021/10/25 11:22:39;;;;;;;5.25;3.58;;;9.00;99.90;;;;;;4768225;30;20062;-84
2021/10/25 11:25:09;;;;;;;3.90;3.60;;;9.00;99.90;;;;;;4747540;30;20047;-85
2021/10/25 11:27:39;;;;;;;4.27;3.87;;;8.90;99.90;;;;;;4766050;30;20051;-85
2021/10/25 11:30:19;;;;;;;5.22;4.70;;;9.00;99.90;;;;;;4764298;30;20301;-85
2021/10/25 11:32:47;;;;;;;4.95;4.15;;;9.00;99.90;;;;;;4765383;30;20055;-85
2021/10/25 11:35:18;;;;;;;6.25;3.72;;;8.90;99.90;;;;;;4766910;30;20059;-85
2021/10/25 11:37:50;;;;;;;5.43;3.50;;;8.90;99.90;;;;;;4750683;30;20493;-85
2021/10/25 11:40:28;;;;;;;;;;;9.00;99.90;;;;;;4750682;30;20054;-85
2021/10/25 11:43:02;;;;;;;4.00;2.83;;;9.00;99.90;;;;;;4750692;30;20391;-85
2021/10/25 11:45:32;;;;;;;6.57;2.90;;;9.20;99.90;;;;;;4748527;30;20047;-85
2021/10/25 11:47:59;;;;;;;4.07;3.10;;;9.40;99.90;;;;;;4750977;30;20059;-84
2021/10/25 11:50:31;;;;;;;5.78;3.88;;;9.40;99.90;;;;;;4750047;30;20059;-85
2021/10/25 11:53:01;;;;;;;4.53;3.53;;;9.50;99.90;;;;;;4750074;30;20056;-85
2021/10/25 11:55:33;;;;;;;6.27;3.50;;;9.50;99.90;;;;;;4735832;30;20066;-85
2021/10/25 11:58:04;;;;;;;3.03;2.72;;;9.40;99.90;;;;;;4766107;30;20308;-86
2021/10/25 12:00:43;;;;;;;2.97;2.78;;;9.40;99.90;;;;;;4763215;30;20048;-85
2021/10/25 12:03:26;;;;;;;6.55;3.97;;;9.40;99.90;;;;;;4750918;30;20047;-86
2021/10/25 12:05:57;;;;;;;4.32;3.25;;;9.50;99.90;;;;;;4782225;29;20407;-85
2021/10/25 12:08:25;;;;;;;6.20;3.15;;;9.50;99.90;;;;;;4768261;30;20071;-86
2021/10/25 12:10:57;;;;;;;3.42;3.13;;;9.50;99.90;;;;;;4783417;29;20394;-86
2021/10/25 12:13:25;;;;;;;6.43;4.13;;;9.60;99.90;;;;;;4782765;29;20179;-84
2021/10/25 12:15:58;;;;;;;5.03;3.55;;;9.60;99.90;;;;;;4765449;30;20052;-85
2021/10/25 12:18:27;;;;;;;5.68;5.18;;;9.70;99.90;;;;;;4735300;30;20052;-86
2021/10/25 12:20:55;;;;;;;6.60;4.07;;;9.70;99.90;;;;;;4764052;30;20103;-84
2021/10/25 12:23:28;;;;;;;4.35;3.60;;;9.50;99.90;;;;;;4765053;30;20064;-86
2021/10/25 12:26:04;;;;;;;4.07;3.70;;;9.60;99.90;;;;;;4764436;30;20067;-84
2021/10/25 12:28:35;;;;;;;4.38;3.50;;;9.70;99.90;;;;;;4779702;30;20056;-85
2021/10/25 12:31:14;;;;;;;4.50;3.53;;;9.70;99.90;;;;;;4747762;30;20530;-84
2021/10/25 12:33:45;;;;;;;7.85;4.18;;;9.60;99.90;;;;;;4749750;30;20048;-86
2021/10/25 12:36:15;;;;;;;5.53;4.20;;;9.60;99.90;;;;;;4766554;30;20058;-86
2021/10/25 12:38:45;;;;;;;6.28;4.90;;;9.60;99.90;;;;;;4769385;30;20052;-84
2021/10/25 12:41:13;;;;;;;4.80;3.83;;;9.60;99.90;;;;;;4775702;29;20437;-86
2021/10/25 12:43:43;;;;;;;7.75;4.38;;;9.60;99.90;;;;;;4769794;30;20098;-86
2021/10/25 12:46:38;;;;;;;2.97;2.75;;;9.60;99.90;;;;;;4767232;30;20059;-85
2021/10/25 13:41:03;;;;;;;;;;;;;;;;;;;;;
2021/10/25 13:49:52;;;;;;;5.18;4.10;;;9.80;99.90;;;;;;4684183;30;20409;-86
2021/10/25 13:53:23;;;;;;;7.00;4.20;;;9.80;99.90;;;;;;4664172;30;20062;-84
2021/10/25 15:04:55;;;;;;;;;;;;;;;;;;;;;
2021/10/25 15:14:45;;;;;;;4.72;3.80;;;8.60;99.90;;;;;;4528178;31;20058;-84
2021/10/25 15:17:13;;;;;;;6.30;5.68;;;8.50;99.90;;;;;;4559975;31;20053;-87
2021/10/25 15:19:41;;;;;;;17.83;4.50;;;8.40;99.90;;;;;;4635188;30;20068;-88
2021/10/25 21:06:54;;;;;;;8.07;5.85;;;4.10;99.90;;;;;;4712023;30;20052;-83
2021/10/25 21:09:21;;;;;;;6.60;6.00;;;4.10;99.90;;;;;;4735155;30;20071;-83
2021/10/25 21:11:49;;;;;;;8.63;6.90;;;4.10;99.90;;;;;;4735510;30;20049;-84
2021/10/25 21:14:17;;;;;;;9.48;8.45;;;4.20;99.90;;;;;;4750162;30;20052;-83
2021/10/25 21:16:46;;;;;;;8.95;7.20;;;4.20;99.90;;;;;;4750917;30;20056;-84
2021/10/25 21:19:14;;;;;;;8.15;7.32;;;4.30;99.90;;;;;;4750718;30;20456;-82
2021/10/25 21:21:43;;;;;;;7.28;6.65;;;4.30;99.90;;;;;;4749473;30;20638;-84
2021/10/25 21:24:11;;;;;;;11.73;9.10;;;4.40;99.90;;;;;;4765086;30;20628;-84
2021/10/25 21:26:39;;;;;;;8.73;7.65;;;4.30;99.90;;;;;;4751246;30;20079;-84
2021/10/25 21:29:07;;;;;;;9.38;7.63;;;4.30;99.90;;;;;;4748592;30;20036;-84
2021/10/25 21:31:36;;;;;;;10.20;7.60;;;4.40;99.90;;;;;;4750210;30;20420;-84
2021/10/25 21:34:04;;;;;;;11.05;7.88;;;4.30;99.90;;;;;;4750922;30;20048;-84
2021/10/25 21:36:32;;;;;;;12.52;9.35;;;4.30;99.90;;;;;;4751455;30;20071;-84
2021/10/25 21:39:00;;;;;;;11.65;7.55;;;4.30;99.90;;;;;;4749572;30;20056;-82
2021/10/25 21:41:29;;;;;;;9.88;7.85;;;4.30;99.90;;;;;;4719609;30;20056;-83
2021/10/25 21:43:58;;;;;;;13.73;9.30;;;4.40;99.90;;;;;;4720198;30;20440;-83
2021/10/25 21:46:27;;;;;;;10.73;7.50;;;4.30;99.90;;;;;;4749274;30;20071;-83
2021/10/25 21:48:54;;;;;;;12.30;9.60;;;4.20;99.90;;;;;;4749511;30;20067;-82
2021/10/25 21:51:22;;;;;;;12.27;9.07;;;4.30;99.90;;;;;;4749281;30;20048;-84
2021/10/25 21:53:50;;;;;;;8.95;7.53;;;4.40;99.90;;;;;;4750301;30;20062;-82
2021/10/25 21:56:18;;;;;;;11.73;8.73;;;4.40;99.90;;;;;;4750685;30;20060;-84
2021/10/25 21:58:45;;;;;;;9.20;7.95;;;4.40;99.90;;;;;;4749904;30;20057;-84
2021/10/25 22:01:13;;;;;;;7.47;6.22;;;4.30;99.90;;;;;;4747367;30;20426;-84
2021/10/25 22:03:42;;;;;;;9.40;6.88;;;4.10;99.90;;;;;;4735183;30;20067;-83
2021/10/25 22:06:10;;;;;;;11.63;8.32;;;4.00;99.90;;;;;;4770239;30;20132;-83
2021/10/25 22:08:37;;;;;;;7.25;6.60;;;3.90;99.90;;;;;;4785420;29;20086;-84
2021/10/25 22:11:05;;;;;;;6.28;5.68;;;4.00;99.90;;;;;;4784399;30;20051;-83
2021/10/25 22:13:34;;;;;;;9.65;7.30;;;3.90;99.90;;;;;;4765344;30;20058;-83
2021/10/25 22:16:02;;;;;;;13.20;9.68;;;3.90;99.90;;;;;;4749242;30;20183;-84
2021/10/25 22:18:30;;;;;;;6.50;5.78;;;3.80;99.90;;;;;;4734335;30;20052;-83
2021/10/25 22:20:59;;;;;;;7.78;7.07;;;3.80;99.90;;;;;;4756604;30;20423;-83
2021/10/25 22:23:27;;;;;;;7.40;6.70;;;3.80;99.90;;;;;;4750662;30;20449;-83
2021/10/25 22:25:56;;;;;;;6.75;6.15;;;3.80;99.90;;;;;;4749934;30;20059;-83
2021/10/25 22:28:25;;;;;;;8.30;6.35;;;3.80;99.90;;;;;;4749344;30;20063;-84
2021/10/25 22:30:54;;;;;;;10.32;6.80;;;3.80;99.90;;;;;;4748039;30;20048;-83
2021/10/25 22:33:22;;;;;;;7.75;7.03;;;3.70;99.90;;;;;;4748720;30;20055;-83
2021/10/25 22:35:51;;;;;;;13.80;9.68;;;3.90;99.90;;;;;;4763945;30;20067;-84
2021/10/25 22:38:19;;;;;;;11.85;8.88;;;3.80;99.90;;;;;;4761819;30;20077;-83
2021/10/25 22:40:48;;;;;;;9.20;6.55;;;3.90;99.90;;;;;;4718695;30;20063;-83
2021/10/25 22:43:16;;;;;;;11.60;7.63;;;3.90;99.90;;;;;;4719646;30;20060;-83
2021/10/25 22:45:44;;;;;;;8.25;7.38;;;3.90;99.90;;;;;;4717481;30;20059;-83
2021/10/25 22:48:16;;;;;;;10.98;7.13;;;3.80;99.90;;;;;;4763095;30;20056;-83
2021/10/25 22:50:44;;;;;;;10.05;8.60;;;3.60;99.90;;;;;;4733396;30;20427;-84
2021/10/25 22:53:12;;;;;;;8.38;7.22;;;3.50;99.90;;;;;;4733550;30;20059;-83
2021/10/25 22:55:40;;;;;;;8.40;6.97;;;3.50;99.90;;;;;;4750062;30;20514;-83
2021/10/25 22:58:07;;;;;;;14.20;9.98;;;3.40;99.90;;;;;;4749475;30;20060;-83
2021/10/25 23:00:38;;;;;;;10.77;7.90;;;3.50;99.90;;;;;;4746842;30;20487;-83
2021/10/25 23:03:06;;;;;;;10.93;9.30;;;3.50;99.90;;;;;;4741077;30;20067;-83
2021/10/25 23:05:33;;;;;;;9.55;8.65;;;3.50;99.90;;;;;;4777108;29;20388;-83